ΕΜΥ, Εθνική Μετεωρολογική Υπηρεσία - Δελτία Καιρού, Προγνώσεις

ΑΕΡΟΝΑΥΤΙΛΙΑ

GREEK AIRPORTS CODES

738 051900Z AUTO 24004KT 010V350 //// // ////// 15/11 Q1012 RE//=

EUROPEAN AIRPORTS CODES

EPWA 051900Z 08005KT 5000 -RASN BR BKN004 00/M00 Q1007 TEMPO 4000=